createdAt,value
2019-02-21T00:00:53.705Z,4.32
2019-02-21T00:03:56.663Z,4.32
2019-02-21T00:07:00.357Z,4.33
2019-02-21T00:09:57.103Z,4.29
2019-02-21T00:12:52.848Z,4.29
2019-02-21T00:15:50.070Z,4.29
2019-02-21T00:18:44.968Z,4.28
2019-02-21T00:21:41.645Z,4.27
2019-02-21T00:24:39.963Z,4.29
2019-02-21T00:27:35.464Z,4.29
2019-02-21T00:30:35.159Z,4.23
2019-02-21T00:33:28.315Z,4.23
2019-02-21T00:36:24.854Z,4.24
2019-02-21T00:39:21.569Z,4.24
2019-02-21T00:42:16.893Z,4.23
2019-02-21T00:45:12.584Z,4.22
2019-02-21T00:48:10.511Z,4.23
2019-02-21T00:51:06.221Z,4.22
2019-02-21T00:54:03.984Z,4.21
2019-02-21T00:56:59.455Z,4.20
2019-02-21T00:59:56.020Z,4.22
2019-02-21T01:02:52.554Z,4.21
2019-02-21T01:05:48.624Z,4.22
2019-02-21T01:08:45.345Z,4.23
2019-02-21T01:11:42.001Z,4.23
2019-02-21T01:14:38.648Z,4.23
2019-02-21T01:17:35.431Z,4.21
2019-02-21T01:20:32.179Z,4.23
2019-02-21T01:23:28.658Z,4.23
2019-02-21T01:26:24.276Z,4.21
2019-02-21T01:29:21.608Z,4.21
2019-02-21T01:32:16.653Z,4.20
2019-02-21T01:35:14.205Z,4.20
2019-02-21T01:38:21.682Z,4.19
2019-02-21T01:41:16.723Z,4.17
2019-02-21T01:44:13.474Z,4.19
2019-02-21T01:47:09.282Z,4.18
2019-02-21T01:50:05.794Z,4.16
2019-02-21T01:53:01.307Z,4.16
2019-02-21T01:55:56.784Z,4.16
2019-02-21T01:58:53.321Z,4.16
2019-02-21T02:01:49.201Z,4.14
2019-02-21T02:04:46.540Z,4.12
2019-02-21T02:07:42.307Z,4.12
2019-02-21T02:10:39.079Z,4.13
2019-02-21T02:13:35.457Z,4.13
2019-02-21T02:16:39.100Z,4.11
2019-02-21T02:19:46.970Z,4.12
2019-02-21T02:22:44.765Z,4.12
2019-02-21T02:25:41.212Z,4.12
2019-02-21T02:28:38.830Z,4.12
2019-02-21T02:31:35.053Z,4.09
2019-02-21T02:34:31.757Z,4.09
2019-02-21T02:37:28.294Z,4.08
2019-02-21T02:40:23.871Z,4.06
2019-02-21T02:43:20.192Z,4.05
2019-02-21T02:46:16.511Z,4.04
2019-02-21T02:49:14.312Z,4.05
2019-02-21T02:52:09.835Z,4.02
2019-02-21T02:55:07.560Z,3.99
2019-02-21T02:58:06.415Z,3.96
2019-02-21T03:01:00.821Z,3.95
2019-02-21T03:03:58.435Z,3.95
2019-02-21T03:06:54.824Z,3.93
2019-02-21T03:09:51.489Z,3.93
2019-02-21T03:12:46.621Z,3.92
2019-02-21T03:15:44.323Z,3.89
2019-02-21T03:18:40.896Z,3.90
2019-02-21T03:21:37.393Z,3.89
2019-02-21T03:24:33.808Z,3.87
2019-02-21T03:27:29.579Z,3.84
2019-02-21T03:30:27.208Z,3.79
2019-02-21T03:33:22.971Z,3.78
2019-02-21T03:36:18.777Z,3.74
2019-02-21T03:39:15.334Z,3.71
2019-02-21T03:42:11.898Z,3.68
2019-02-21T03:45:14.554Z,3.64
2019-02-21T03:48:10.020Z,3.63
2019-02-21T03:51:06.471Z,3.60
2019-02-21T03:54:01.796Z,3.55
2019-02-21T03:56:58.898Z,3.50
2019-02-21T03:59:54.590Z,3.45
2019-02-21T04:02:50.977Z,3.42
2019-02-21T04:05:48.205Z,3.39
2019-02-21T04:08:43.679Z,3.34
2019-02-21T04:11:40.429Z,3.29
2019-02-21T04:14:37.434Z,3.24
2019-02-21T04:17:33.986Z,3.21
2019-02-21T04:20:30.519Z,3.15
2019-02-21T04:23:28.047Z,3.13
2019-02-21T04:26:35.552Z,3.10
2019-02-21T04:29:34.129Z,3.08
2019-02-21T04:32:30.501Z,3.07
2019-02-21T04:35:26.176Z,3.05
2019-02-21T04:38:22.882Z,3.03
2019-02-21T04:41:18.305Z,2.99
2019-02-21T04:44:14.091Z,2.94
2019-02-21T04:47:11.811Z,2.90
2019-02-21T04:50:07.306Z,2.88
2019-02-21T04:53:04.127Z,2.86
2019-02-21T04:55:59.661Z,2.84
2019-02-21T04:58:56.259Z,2.81
2019-02-21T05:01:53.047Z,2.78
2019-02-21T05:04:47.604Z,2.74
2019-02-21T05:07:46.308Z,2.69
2019-02-21T05:10:42.117Z,2.67
2019-02-21T05:13:38.940Z,2.64
2019-02-21T05:16:34.758Z,2.61
2019-02-21T05:19:31.506Z,2.57
2019-02-21T05:22:31.226Z,2.55
2019-02-21T05:25:27.808Z,2.51
2019-02-21T05:28:33.662Z,2.45
2019-02-21T05:31:51.438Z,2.40
2019-02-21T05:35:09.769Z,2.38
2019-02-21T05:38:18.647Z,2.34
2019-02-21T05:41:35.861Z,2.31
2019-02-21T05:44:47.180Z,2.26
2019-02-21T05:48:10.153Z,2.21
2019-02-21T05:51:19.262Z,2.18
2019-02-21T05:54:36.518Z,2.18
2019-02-21T05:57:58.954Z,2.15
2019-02-21T06:01:04.803Z,2.09
2019-02-21T06:04:14.110Z,2.11
2019-02-21T06:07:20.519Z,2.10
2019-02-21T06:10:44.145Z,2.11
2019-02-21T06:14:03.090Z,2.10
2019-02-21T06:17:14.748Z,2.09
2019-02-21T06:20:25.241Z,2.09
2019-02-21T06:23:31.713Z,2.07
2019-02-21T06:26:35.267Z,1.98
2019-02-21T06:29:41.710Z,1.95
2019-02-21T06:32:40.928Z,1.94
2019-02-21T06:35:36.717Z,1.94
2019-02-21T06:38:44.630Z,1.93
2019-02-21T06:41:59.137Z,1.93
2019-02-21T06:44:47.056Z,1.90
2019-02-21T06:47:43.791Z,1.89
2019-02-21T06:50:40.536Z,1.90
2019-02-21T06:53:35.792Z,1.92
2019-02-21T06:56:32.370Z,1.90
2019-02-21T06:59:27.837Z,1.92
2019-02-21T07:02:24.650Z,1.93
2019-02-21T07:05:19.463Z,2.00
2019-02-21T07:08:16.188Z,2.08
2019-02-21T07:11:13.736Z,2.15
2019-02-21T07:14:10.395Z,2.22
2019-02-21T07:17:08.545Z,2.26
2019-02-21T07:20:03.399Z,2.28
2019-02-21T07:23:05.030Z,2.33
2019-02-21T07:26:05.698Z,2.39
2019-02-21T07:29:03.448Z,2.42
2019-02-21T07:32:05.065Z,2.45
2019-02-21T07:35:00.730Z,2.51
2019-02-21T07:37:57.268Z,2.57
2019-02-21T07:40:54.119Z,2.67
2019-02-21T07:43:49.085Z,2.76
2019-02-21T07:46:46.415Z,2.85
2019-02-21T07:49:43.391Z,2.94
2019-02-21T07:52:40.131Z,3.05
2019-02-21T07:55:35.833Z,3.13
2019-02-21T07:58:32.366Z,3.21
2019-02-21T08:01:28.839Z,3.28
2019-02-21T08:04:24.118Z,3.37
2019-02-21T08:07:21.009Z,3.46
2019-02-21T08:10:16.552Z,3.56
2019-02-21T08:13:14.093Z,3.69
2019-02-21T08:16:12.381Z,3.81
2019-02-21T08:19:07.017Z,3.95
2019-02-21T08:22:03.814Z,4.08
2019-02-21T08:24:59.209Z,4.19
2019-02-21T08:27:55.713Z,4.32
2019-02-21T08:30:52.671Z,4.46
2019-02-21T08:34:04.103Z,4.58
2019-02-21T08:36:57.974Z,4.70
2019-02-21T08:39:53.454Z,4.80
2019-02-21T08:42:50.018Z,4.88
2019-02-21T08:45:45.797Z,4.96
2019-02-21T08:48:42.569Z,5.04
2019-02-21T08:51:40.129Z,5.13
2019-02-21T08:54:41.816Z,5.29
2019-02-21T08:57:38.363Z,5.45
2019-02-21T09:00:33.270Z,5.52
2019-02-21T09:03:29.907Z,5.63
2019-02-21T09:06:26.343Z,5.75
2019-02-21T09:09:22.861Z,5.91
2019-02-21T09:12:19.889Z,6.07
2019-02-21T09:15:16.656Z,6.24
2019-02-21T09:18:13.991Z,6.39
2019-02-21T09:21:10.760Z,6.53
2019-02-21T09:24:07.250Z,6.66
2019-02-21T09:27:04.094Z,6.79
2019-02-21T09:29:59.592Z,6.94
2019-02-21T09:32:58.115Z,7.08
2019-02-21T09:35:56.754Z,7.22
2019-02-21T09:38:51.497Z,7.41
2019-02-21T09:41:49.494Z,7.65
2019-02-21T09:44:44.914Z,7.76
2019-02-21T09:47:41.667Z,7.87
2019-02-21T09:50:37.802Z,8.05
2019-02-21T09:53:34.209Z,8.32
2019-02-21T09:56:33.176Z,8.57
2019-02-21T09:59:28.963Z,8.77
2019-02-21T10:02:26.262Z,8.94
2019-02-21T10:05:22.010Z,9.07
2019-02-21T10:08:18.725Z,9.31
2019-02-21T10:11:16.462Z,9.41
2019-02-21T10:14:10.987Z,9.49
2019-02-21T10:17:07.470Z,9.57
2019-02-21T10:20:04.285Z,9.61
2019-02-21T10:23:00.289Z,9.71
2019-02-21T10:25:55.854Z,9.85
2019-02-21T10:28:52.376Z,9.98
2019-02-21T10:31:49.149Z,10.06
2019-02-21T10:34:45.931Z,10.10
2019-02-21T10:37:42.280Z,10.19
2019-02-21T10:40:37.314Z,10.30
2019-02-21T10:43:33.891Z,10.47
2019-02-21T10:46:31.020Z,10.56
2019-02-21T10:49:25.995Z,10.64
2019-02-21T10:52:22.636Z,10.61
2019-02-21T10:55:18.386Z,10.49
2019-02-21T10:58:14.886Z,10.41
2019-02-21T11:01:10.622Z,10.38
2019-02-21T11:04:12.976Z,10.37
2019-02-21T11:07:08.475Z,10.43
2019-02-21T11:10:05.265Z,10.45
2019-02-21T11:13:02.009Z,10.56
2019-02-21T11:15:57.734Z,10.76
2019-02-21T11:18:54.732Z,10.88
2019-02-21T11:21:50.506Z,10.91
2019-02-21T11:24:48.197Z,11.01
2019-02-21T11:27:43.680Z,11.19
2019-02-21T11:30:39.996Z,11.29
2019-02-21T11:33:36.704Z,11.36
2019-02-21T11:36:33.298Z,11.36
2019-02-21T11:39:29.921Z,11.34
2019-02-21T11:42:25.427Z,11.34
2019-02-21T11:45:21.878Z,11.36
2019-02-21T11:48:17.586Z,11.34
2019-02-21T11:51:14.394Z,11.40
2019-02-21T11:54:10.257Z,11.47
2019-02-21T11:57:07.044Z,11.47
2019-02-21T12:00:03.785Z,11.44
2019-02-21T12:03:00.421Z,11.43
2019-02-21T12:05:56.612Z,11.47
2019-02-21T12:08:52.377Z,11.63
2019-02-21T12:11:48.906Z,11.77
2019-02-21T12:14:43.543Z,11.88
2019-02-21T12:17:48.771Z,11.98
2019-02-21T12:20:45.331Z,12.14
2019-02-21T12:23:43.493Z,12.21
2019-02-21T12:26:38.661Z,12.24
2019-02-21T12:29:35.454Z,12.33
2019-02-21T12:32:31.882Z,12.43
2019-02-21T12:35:29.815Z,12.38
2019-02-21T12:38:26.287Z,12.28
2019-02-21T12:41:22.235Z,12.18
2019-02-21T12:44:19.086Z,12.14
2019-02-21T12:47:15.927Z,12.09
2019-02-21T12:50:13.804Z,12.09
2019-02-21T12:53:10.905Z,12.08
2019-02-21T12:56:06.515Z,12.02
2019-02-21T12:59:03.200Z,12.00
2019-02-21T13:01:58.958Z,12.03
2019-02-21T13:04:56.807Z,11.99
2019-02-21T13:07:52.795Z,11.90
2019-02-21T13:10:49.617Z,11.74
2019-02-21T13:13:46.166Z,11.74
2019-02-21T13:16:44.095Z,11.69
2019-02-21T13:19:39.943Z,11.73
2019-02-21T13:22:35.433Z,11.74
2019-02-21T13:25:32.059Z,11.71
2019-02-21T13:28:27.859Z,11.78
2019-02-21T13:31:24.627Z,11.81
2019-02-21T13:34:21.139Z,11.87
2019-02-21T13:37:28.226Z,11.86
2019-02-21T13:40:15.374Z,11.85
2019-02-21T13:43:10.103Z,11.87
2019-02-21T13:46:06.914Z,11.94
2019-02-21T13:49:02.440Z,12.04
2019-02-21T13:51:58.764Z,12.17
2019-02-21T13:54:55.264Z,12.30
2019-02-21T13:57:52.204Z,12.33
2019-02-21T14:00:47.947Z,12.23
2019-02-21T14:03:43.595Z,12.14
2019-02-21T14:06:40.814Z,12.04
2019-02-21T14:09:38.027Z,12.00
2019-02-21T14:12:34.277Z,11.95
2019-02-21T14:15:34.219Z,11.93
2019-02-21T14:18:31.069Z,11.93
2019-02-21T14:21:26.612Z,11.94
2019-02-21T14:24:35.977Z,11.98
2019-02-21T14:27:19.792Z,12.07
2019-02-21T14:30:16.346Z,12.18
2019-02-21T14:33:12.492Z,12.21
2019-02-21T14:36:15.973Z,12.19
2019-02-21T14:39:05.915Z,12.21
2019-02-21T14:42:04.307Z,12.19
2019-02-21T14:44:58.917Z,12.11
2019-02-21T14:47:54.831Z,12.03
2019-02-21T14:50:51.650Z,11.96
2019-02-21T14:53:48.490Z,11.92
2019-02-21T14:56:43.799Z,11.85
2019-02-21T14:59:40.364Z,11.79
2019-02-21T15:02:35.941Z,11.74
2019-02-21T15:05:33.554Z,11.68
2019-02-21T15:08:29.371Z,11.62
2019-02-21T15:11:26.285Z,11.56
2019-02-21T15:14:22.073Z,11.53
2019-02-21T15:17:21.325Z,11.52
2019-02-21T15:20:17.661Z,11.49
2019-02-21T15:23:14.375Z,11.41
2019-02-21T15:26:11.977Z,11.37
2019-02-21T15:29:07.697Z,11.32
2019-02-21T15:32:11.204Z,11.28
2019-02-21T15:35:01.242Z,11.20
2019-02-21T15:37:57.480Z,11.18
2019-02-21T15:40:54.078Z,11.13
2019-02-21T15:43:50.639Z,11.09
2019-02-21T15:46:46.294Z,11.05
2019-02-21T15:49:41.349Z,10.95
2019-02-21T15:52:38.148Z,10.95
2019-02-21T15:55:35.606Z,10.93
2019-02-21T15:58:31.389Z,10.90
2019-02-21T16:01:28.130Z,10.86
2019-02-21T16:04:23.676Z,10.82
2019-02-21T16:07:21.611Z,10.78
2019-02-21T16:10:17.955Z,10.76
2019-02-21T16:13:13.633Z,10.70
2019-02-21T16:16:09.456Z,10.65
2019-02-21T16:19:07.126Z,10.63
2019-02-21T16:22:03.763Z,10.60
2019-02-21T16:24:59.342Z,10.57
2019-02-21T16:27:56.226Z,10.55
2019-02-21T16:30:52.755Z,10.54
2019-02-21T16:33:48.360Z,10.48
2019-02-21T16:36:44.057Z,10.44
2019-02-21T16:39:39.732Z,10.43
2019-02-21T16:42:36.293Z,10.42
2019-02-21T16:45:42.994Z,10.38
2019-02-21T16:48:30.401Z,10.34
2019-02-21T16:51:25.804Z,10.26
2019-02-21T16:54:22.375Z,10.19
2019-02-21T16:57:18.807Z,10.13
2019-02-21T17:00:15.350Z,10.11
2019-02-21T17:03:11.692Z,10.10
2019-02-21T17:06:07.500Z,10.06
2019-02-21T17:09:04.073Z,10.04
2019-02-21T17:11:59.841Z,10.00
2019-02-21T17:14:57.629Z,9.93
2019-02-21T17:17:53.153Z,9.84
2019-02-21T17:20:50.816Z,9.78
2019-02-21T17:23:46.601Z,9.71
2019-02-21T17:26:44.023Z,9.67
2019-02-21T17:29:41.620Z,9.63
2019-02-21T17:32:41.446Z,9.59
2019-02-21T17:35:37.943Z,9.56
2019-02-21T17:38:34.750Z,9.52
2019-02-21T17:41:31.478Z,9.50
2019-02-21T17:44:27.145Z,9.48
2019-02-21T17:47:24.839Z,9.43
2019-02-21T17:50:20.355Z,9.41
2019-02-21T17:53:18.846Z,9.37
2019-02-21T17:56:15.503Z,9.34
2019-02-21T17:59:11.035Z,9.30
2019-02-21T18:02:14.674Z,9.26
2019-02-21T18:05:17.177Z,9.22
2019-02-21T18:08:14.587Z,9.16
2019-02-21T18:11:12.604Z,9.11
2019-02-21T18:14:06.811Z,9.07
2019-02-21T18:17:04.515Z,9.03
2019-02-21T18:20:00.993Z,8.98
2019-02-21T18:22:57.643Z,8.94
2019-02-21T18:26:00.917Z,8.91
2019-02-21T18:28:58.790Z,8.87
2019-02-21T18:31:55.226Z,8.82
2019-02-21T18:34:50.830Z,8.79
2019-02-21T18:37:48.297Z,8.74
2019-02-21T18:40:43.205Z,8.71
2019-02-21T18:43:39.712Z,8.68
2019-02-21T18:46:35.271Z,8.64
2019-02-21T18:49:32.889Z,8.57
2019-02-21T18:52:28.087Z,8.52
2019-02-21T18:55:24.739Z,8.51
2019-02-21T18:58:21.492Z,8.45
2019-02-21T19:01:17.298Z,8.41
2019-02-21T19:04:13.936Z,8.35
2019-02-21T19:07:09.488Z,8.31
2019-02-21T19:10:06.322Z,8.25
2019-02-21T19:13:01.966Z,8.18
2019-02-21T19:15:59.531Z,8.12
2019-02-21T19:18:56.145Z,8.03
2019-02-21T19:21:53.782Z,7.95
2019-02-21T19:24:49.898Z,7.89
2019-02-21T19:27:45.654Z,7.82
2019-02-21T19:30:46.892Z,7.77
2019-02-21T19:33:42.810Z,7.72
2019-02-21T19:36:39.714Z,7.72
2019-02-21T19:39:35.390Z,7.67
2019-02-21T19:42:33.783Z,7.66
2019-02-21T19:45:30.816Z,7.68
2019-02-21T19:48:26.795Z,7.70
2019-02-21T19:51:25.567Z,7.70
2019-02-21T19:54:21.251Z,7.71
2019-02-21T19:57:18.140Z,7.70
2019-02-21T20:00:13.836Z,7.69
2019-02-21T20:03:15.670Z,7.71
2019-02-21T20:06:16.646Z,7.71
2019-02-21T20:09:14.227Z,7.70
2019-02-21T20:12:11.870Z,7.68
2019-02-21T20:15:07.660Z,7.65
2019-02-21T20:18:05.565Z,7.62
2019-02-21T20:21:01.310Z,7.59
2019-02-21T20:23:58.167Z,7.59
2019-02-21T20:26:53.910Z,7.57
2019-02-21T20:29:50.499Z,7.60
2019-02-21T20:32:50.411Z,7.61
2019-02-21T20:35:46.361Z,7.61
2019-02-21T20:38:43.288Z,7.58
2019-02-21T20:41:40.947Z,7.54
2019-02-21T20:44:37.569Z,7.46
2019-02-21T20:47:34.608Z,7.40
2019-02-21T20:50:31.188Z,7.38
2019-02-21T20:53:28.822Z,7.39
2019-02-21T20:56:24.596Z,7.41
2019-02-21T20:59:21.379Z,7.44
2019-02-21T21:02:18.703Z,7.45
2019-02-21T21:05:14.746Z,7.47
2019-02-21T21:08:10.699Z,7.47
2019-02-21T21:11:07.261Z,7.49
2019-02-21T21:14:03.876Z,7.49
2019-02-21T21:17:00.314Z,7.50
2019-02-21T21:19:56.152Z,7.52
2019-02-21T21:22:52.599Z,7.52
2019-02-21T21:25:48.437Z,7.53
2019-02-21T21:28:44.049Z,7.52
2019-02-21T21:31:40.566Z,7.52
2019-02-21T21:34:36.084Z,7.53
2019-02-21T21:37:32.818Z,7.52
2019-02-21T21:40:29.506Z,7.51
2019-02-21T21:43:25.963Z,7.51
2019-02-21T21:46:22.830Z,7.51
2019-02-21T21:49:17.866Z,7.51
2019-02-21T21:52:14.200Z,7.52
2019-02-21T21:55:13.695Z,7.54
2019-02-21T21:58:12.879Z,7.53
2019-02-21T22:01:06.092Z,7.55
2019-02-21T22:04:03.909Z,7.56
2019-02-21T22:07:00.520Z,7.56
2019-02-21T22:09:55.755Z,7.56
2019-02-21T22:12:53.494Z,7.56
2019-02-21T22:15:48.004Z,7.58
2019-02-21T22:18:46.482Z,7.58
2019-02-21T22:21:42.827Z,7.59
2019-02-21T22:24:40.269Z,7.60
2019-02-21T22:27:38.033Z,7.58
2019-02-21T22:30:33.753Z,7.56
2019-02-21T22:33:31.043Z,7.57
2019-02-21T22:36:26.442Z,7.59
2019-02-21T22:39:22.967Z,7.58
2019-02-21T22:42:18.257Z,7.58
2019-02-21T22:45:14.844Z,7.59
2019-02-21T22:48:10.419Z,7.58
2019-02-21T22:51:07.015Z,7.59
2019-02-21T22:54:04.606Z,7.58
2019-02-21T22:57:01.313Z,7.58
2019-02-21T22:59:58.076Z,7.58
2019-02-21T23:02:54.892Z,7.57
2019-02-21T23:06:20.100Z,7.58
2019-02-21T23:09:15.137Z,7.58
2019-02-21T23:12:11.825Z,7.59
2019-02-21T23:15:07.311Z,7.59
2019-02-21T23:18:04.897Z,7.59
2019-02-21T23:21:01.666Z,7.58
2019-02-21T23:23:57.874Z,7.58
2019-02-21T23:26:54.573Z,7.57
2019-02-21T23:29:49.673Z,7.57
2019-02-21T23:32:46.246Z,7.57
2019-02-21T23:35:41.757Z,7.54
2019-02-21T23:38:39.565Z,7.55
2019-02-21T23:41:36.290Z,7.54
2019-02-21T23:44:32.843Z,7.55
2019-02-21T23:47:30.407Z,7.56
2019-02-21T23:50:26.122Z,7.57
2019-02-21T23:53:21.841Z,7.56
2019-02-21T23:56:16.864Z,7.58
2019-02-21T23:59:14.689Z,7.57
